Time;durP1;ratioP1;P1;durP2;ratioP2;P2;SDS_P1;SDS_P2;PMS_P1;PMS_P2;Temp;Humidity;BMP_temperature;BMP_pressure;BME280_temperature;BME280_humidity;BME280_pressure;Samples;Min_cycle;Max_cycle;Signal;HPM_P1;HPM_P2
2021/12/17 00:01:05;;;;;;;129.27;40.72;;;;;;;;;;5032070;28;20017;-67
2021/12/17 00:03:40;;;;;;;126.05;41.38;;;;;;;;;;5033784;28;20028;-68
2021/12/17 00:06:15;;;;;;;133.50;42.45;;;;;;;;;;5033920;28;20023;-67
2021/12/17 00:08:41;;;;;;;138.93;42.15;;;;;;;;;;5034039;28;20091;-67
2021/12/17 00:11:07;;;;;;;138.65;41.05;;;;;;;;;;5032894;28;20021;-67
2021/12/17 00:13:34;;;;;;;145.48;43.60;;;;;;;;;;5033794;28;20018;-67
2021/12/17 00:15:59;;;;;;;139.65;39.83;;;;;;;;;;5033473;28;20024;-68
2021/12/17 00:18:42;;;;;;;129.38;41.78;;;;;;;;;;5016018;28;20014;-68
2021/12/17 00:40:32;;;;;;;121.00;39.72;;;;;;;;;;5033241;28;20028;-67
2021/12/17 00:48:38;;;;;;;108.50;36.95;;;;;;;;;;5032396;28;20040;-67
2021/12/17 00:51:38;;;;;;;120.25;41.33;;;;;;;;;;5033099;28;20017;-68
2021/12/17 00:53:53;;;;;;;117.78;37.65;;;;;;;;;;5032813;28;20084;-68
2021/12/17 00:56:19;;;;;;;137.80;40.28;;;;;;;;;;5033197;28;20020;-67
2021/12/17 00:58:44;;;;;;;129.05;37.97;;;;;;;;;;5033420;28;20018;-67
2021/12/17 01:01:10;;;;;;;127.50;39.45;;;;;;;;;;5033139;28;20029;-67
2021/12/17 01:03:35;;;;;;;133.57;42.05;;;;;;;;;;5033053;28;20033;-67
2021/12/17 01:06:00;;;;;;;138.38;41.75;;;;;;;;;;5033366;28;20018;-67
2021/12/17 01:08:26;;;;;;;134.35;42.30;;;;;;;;;;5042862;28;20025;-67
2021/12/17 01:10:53;;;;;;;121.97;39.35;;;;;;;;;;5052941;28;20017;-67
2021/12/17 01:13:18;;;;;;;145.52;41.95;;;;;;;;;;5051172;28;20024;-67
2021/12/17 01:15:44;;;;;;;121.82;41.00;;;;;;;;;;5052636;28;20017;-68
2021/12/17 01:18:14;;;;;;;130.68;39.00;;;;;;;;;;5052912;28;20037;-67
2021/12/17 01:36:29;;;;;;;122.95;37.63;;;;;;;;;;5033242;28;20040;-68
2021/12/17 01:44:16;;;;;;;115.18;35.92;;;;;;;;;;5032706;28;20048;-67
2021/12/17 01:46:43;;;;;;;115.53;34.95;;;;;;;;;;5015130;28;20493;-67
2021/12/17 01:59:44;;;;;;;121.38;37.75;;;;;;;;;;5003693;28;20087;-68
2021/12/17 02:02:10;;;;;;;121.80;37.80;;;;;;;;;;5031949;28;20017;-67
2021/12/17 02:04:36;;;;;;;117.43;37.72;;;;;;;;;;5032052;28;20061;-67
2021/12/17 02:07:02;;;;;;;111.22;36.38;;;;;;;;;;5032244;28;20028;-67
2021/12/17 02:12:44;;;;;;;109.53;37.28;;;;;;;;;;5031754;28;20497;-67
2021/12/17 02:29:00;;;;;;;106.47;34.33;;;;;;;;;;5011951;28;20049;-67
2021/12/17 02:31:28;;;;;;;103.32;34.03;;;;;;;;;;5011481;28;20033;-68
2021/12/17 02:33:55;;;;;;;100.65;32.10;;;;;;;;;;5011751;28;20021;-67
2021/12/17 02:36:25;;;;;;;112.00;35.97;;;;;;;;;;5011644;28;20018;-67
2021/12/17 02:38:53;;;;;;;110.43;35.40;;;;;;;;;;5011933;28;20024;-67
2021/12/17 02:46:46;;;;;;;106.95;34.63;;;;;;;;;;5031535;28;20053;-68
2021/12/17 02:49:11;;;;;;;106.10;34.28;;;;;;;;;;5031359;28;20025;-67
2021/12/17 02:51:36;;;;;;;84.68;31.55;;;;;;;;;;5031065;28;20087;-68
2021/12/17 02:54:02;;;;;;;101.03;31.70;;;;;;;;;;5031230;28;20017;-68
2021/12/17 02:56:27;;;;;;;81.55;29.10;;;;;;;;;;5031319;28;20092;-67
2021/12/17 02:58:54;;;;;;;101.63;31.52;;;;;;;;;;5031380;28;20041;-67
2021/12/17 03:01:20;;;;;;;91.97;31.75;;;;;;;;;;5030782;28;20021;-67
2021/12/17 03:03:46;;;;;;;106.68;34.63;;;;;;;;;;5030901;28;20032;-67
2021/12/17 03:06:11;;;;;;;103.28;33.30;;;;;;;;;;5031059;28;20486;-67
2021/12/17 03:08:37;;;;;;;92.55;31.27;;;;;;;;;;5042456;28;20036;-67
2021/12/17 03:11:02;;;;;;;79.38;28.88;;;;;;;;;;5050675;28;20024;-67
2021/12/17 03:13:29;;;;;;;100.45;31.10;;;;;;;;;;5050826;28;20029;-68
2021/12/17 03:16:08;;;;;;;84.63;28.50;;;;;;;;;;5039987;28;20032;-67
2021/12/17 03:23:52;;;;;;;82.70;27.85;;;;;;;;;;5030773;28;20447;-67
2021/12/17 03:26:21;;;;;;;71.55;27.13;;;;;;;;;;5030483;28;20092;-67
2021/12/17 03:28:48;;;;;;;69.03;25.05;;;;;;;;;;5030691;28;20079;-68
2021/12/17 03:31:14;;;;;;;76.25;26.10;;;;;;;;;;5029888;28;20025;-68
2021/12/17 03:33:42;;;;;;;79.82;27.98;;;;;;;;;;5030427;28;20021;-67
2021/12/17 03:36:09;;;;;;;81.15;27.17;;;;;;;;;;5030039;28;20576;-68
2021/12/17 03:38:34;;;;;;;77.32;25.50;;;;;;;;;;5030431;28;20026;-67
2021/12/17 03:41:17;;;;;;;83.78;29.77;;;;;;;;;;5030298;28;20029;-67
2021/12/17 03:43:43;;;;;;;84.63;29.60;;;;;;;;;;5030692;28;20025;-67
2021/12/17 03:46:09;;;;;;;77.30;28.63;;;;;;;;;;5030478;28;20021;-67
2021/12/17 03:48:37;;;;;;;73.65;28.02;;;;;;;;;;5028799;28;20032;-67
2021/12/17 03:51:03;;;;;;;73.25;27.73;;;;;;;;;;5029834;28;20636;-68
2021/12/17 03:53:28;;;;;;;91.45;30.23;;;;;;;;;;5030184;28;20025;-67
2021/12/17 03:55:53;;;;;;;85.40;29.33;;;;;;;;;;5030287;28;20056;-68
2021/12/17 03:58:19;;;;;;;79.67;30.70;;;;;;;;;;5030206;28;20048;-67
2021/12/17 04:00:45;;;;;;;92.50;29.75;;;;;;;;;;5030044;28;20256;-67
2021/12/17 04:03:10;;;;;;;88.00;30.63;;;;;;;;;;5030237;28;20018;-67
2021/12/17 04:05:35;;;;;;;87.13;26.77;;;;;;;;;;5029972;28;20104;-67
2021/12/17 04:08:00;;;;;;;92.68;31.48;;;;;;;;;;5036947;28;20744;-67
2021/12/17 04:10:28;;;;;;;95.47;30.27;;;;;;;;;;5049713;28;20025;-67
2021/12/17 04:13:02;;;;;;;102.68;32.33;;;;;;;;;;5050196;28;20262;-67
2021/12/17 04:15:53;;;;;;;102.88;31.42;;;;;;;;;;5050048;28;20021;-68
2021/12/17 04:18:15;;;;;;;100.15;30.67;;;;;;;;;;5049394;28;20670;-67
2021/12/17 04:20:40;;;;;;;90.68;30.20;;;;;;;;;;5046073;28;20025;-67
2021/12/17 04:23:05;;;;;;;92.70;30.50;;;;;;;;;;5030265;28;20033;-67
2021/12/17 04:25:30;;;;;;;76.83;28.97;;;;;;;;;;5030126;28;20651;-67
2021/12/17 04:27:56;;;;;;;94.05;32.03;;;;;;;;;;5030441;28;20256;-67
2021/12/17 04:30:22;;;;;;;96.88;30.25;;;;;;;;;;5029879;28;20018;-67
2021/12/17 04:32:47;;;;;;;90.65;29.95;;;;;;;;;;5030288;28;20010;-68
2021/12/17 04:35:12;;;;;;;95.73;31.93;;;;;;;;;;5029886;28;20462;-67
2021/12/17 04:37:37;;;;;;;89.78;30.95;;;;;;;;;;5029842;28;20276;-67
2021/12/17 04:40:03;;;;;;;92.82;29.98;;;;;;;;;;5029957;28;20462;-67
2021/12/17 04:44:56;;;;;;;90.20;30.03;;;;;;;;;;5029824;28;20413;-67
2021/12/17 04:58:18;;;;;;;90.65;28.75;;;;;;;;;;5013633;28;20024;-67
2021/12/17 05:00:43;;;;;;;89.70;29.52;;;;;;;;;;5013444;28;20022;-67
2021/12/17 05:03:08;;;;;;;95.07;29.97;;;;;;;;;;5013222;28;20033;-67
2021/12/17 05:05:35;;;;;;;92.25;31.33;;;;;;;;;;5013560;28;20344;-67
2021/12/17 05:08:08;;;;;;;94.22;31.13;;;;;;;;;;5026813;28;20017;-67
2021/12/17 05:18:44;;;;;;;100.43;31.58;;;;;;;;;;5033289;28;20060;-68
2021/12/17 05:21:09;;;;;;;95.75;30.83;;;;;;;;;;5032770;28;20061;-68
2021/12/17 05:23:39;;;;;;;97.70;31.53;;;;;;;;;;5033001;28;20261;-67
2021/12/17 05:26:07;;;;;;;97.30;31.50;;;;;;;;;;5032704;28;20294;-68
2021/12/17 05:28:33;;;;;;;98.93;30.90;;;;;;;;;;5032874;28;20030;-67
2021/12/17 05:30:58;;;;;;;104.68;32.40;;;;;;;;;;5032471;28;20048;-67
2021/12/17 05:33:24;;;;;;;99.37;32.77;;;;;;;;;;5032659;28;20067;-67
2021/12/17 05:35:49;;;;;;;100.97;31.95;;;;;;;;;;5032787;28;20252;-68
2021/12/17 05:38:16;;;;;;;97.53;30.55;;;;;;;;;;5032574;28;20358;-67
2021/12/17 05:40:42;;;;;;;88.22;29.75;;;;;;;;;;5032432;28;20044;-67
2021/12/17 05:43:08;;;;;;;99.03;32.30;;;;;;;;;;5032390;28;20025;-68
2021/12/17 05:46:34;;;;;;;91.78;30.17;;;;;;;;;;5032253;28;20041;-67
2021/12/17 05:48:21;;;;;;;93.47;30.08;;;;;;;;;;5024704;28;20033;-68
2021/12/17 05:50:47;;;;;;;89.40;29.83;;;;;;;;;;5032308;28;20017;-68
2021/12/17 05:53:13;;;;;;;104.03;32.63;;;;;;;;;;5032685;28;20436;-68
2021/12/17 05:55:38;;;;;;;104.15;33.90;;;;;;;;;;5032583;28;20092;-68
2021/12/17 05:58:04;;;;;;;88.47;30.17;;;;;;;;;;5031936;28;20013;-67
2021/12/17 06:00:30;;;;;;;86.20;29.70;;;;;;;;;;5031733;28;20151;-67
2021/12/17 06:02:56;;;;;;;91.82;30.30;;;;;;;;;;5032174;28;20104;-67
2021/12/17 06:05:21;;;;;;;87.10;30.70;;;;;;;;;;5032061;28;20025;-68
2021/12/17 06:07:47;;;;;;;96.57;30.75;;;;;;;;;;5036581;28;20051;-67
2021/12/17 06:10:12;;;;;;;92.22;28.67;;;;;;;;;;5051575;28;20025;-67
2021/12/17 06:12:38;;;;;;;92.40;30.27;;;;;;;;;;5052083;28;20382;-67
2021/12/17 06:15:04;;;;;;;108.55;31.70;;;;;;;;;;5051973;28;20020;-67
2021/12/17 06:17:29;;;;;;;85.55;29.25;;;;;;;;;;5052002;28;20024;-67
2021/12/17 06:19:54;;;;;;;84.77;28.53;;;;;;;;;;5051761;28;20028;-67
2021/12/17 06:22:19;;;;;;;88.60;29.42;;;;;;;;;;5037668;28;20697;-68
2021/12/17 06:24:45;;;;;;;91.07;29.90;;;;;;;;;;5031833;28;20454;-68
2021/12/17 06:27:14;;;;;;;93.45;30.75;;;;;;;;;;5031713;28;20021;-67
2021/12/17 06:29:40;;;;;;;89.88;29.88;;;;;;;;;;5031537;28;20479;-67
2021/12/17 06:32:05;;;;;;;90.90;31.33;;;;;;;;;;5030767;28;20100;-67
2021/12/17 06:34:31;;;;;;;97.38;31.90;;;;;;;;;;5031733;28;20028;-67
2021/12/17 06:36:56;;;;;;;86.30;31.60;;;;;;;;;;5031391;28;20462;-67
2021/12/17 06:39:21;;;;;;;88.72;30.88;;;;;;;;;;5031224;28;20017;-67
2021/12/17 06:41:46;;;;;;;94.68;31.67;;;;;;;;;;5030975;28;20104;-67
2021/12/17 06:44:14;;;;;;;98.72;30.80;;;;;;;;;;5031230;28;20051;-67
2021/12/17 06:55:02;;;;;;;101.38;31.98;;;;;;;;;;5031142;28;20024;-67
2021/12/17 07:10:55;;;;;;;108.85;34.47;;;;;;;;;;5029928;28;20037;-67
2021/12/17 07:21:35;;;;;;;117.10;37.63;;;;;;;;;;5030412;28;20056;-67
2021/12/17 07:34:20;;;;;;;114.68;37.08;;;;;;;;;;5030574;28;20032;-66
2021/12/17 07:39:16;;;;;;;128.43;40.75;;;;;;;;;;5030583;28;20028;-66
2021/12/17 07:41:43;;;;;;;130.45;39.25;;;;;;;;;;5030101;28;20017;-66
2021/12/17 07:44:08;;;;;;;115.35;37.28;;;;;;;;;;5030326;28;20021;-66
2021/12/17 07:46:34;;;;;;;123.32;38.92;;;;;;;;;;5030445;28;20393;-66
2021/12/17 07:48:59;;;;;;;108.15;37.63;;;;;;;;;;5030393;28;20029;-66
2021/12/17 07:51:24;;;;;;;108.75;40.08;;;;;;;;;;5030179;28;20029;-67
2021/12/17 07:53:50;;;;;;;104.70;37.42;;;;;;;;;;5030347;28;20071;-67
2021/12/17 07:56:17;;;;;;;113.63;38.83;;;;;;;;;;5030414;28;20048;-67
2021/12/17 07:58:42;;;;;;;97.88;35.25;;;;;;;;;;5030441;28;20020;-67
2021/12/17 08:01:10;;;;;;;104.68;36.35;;;;;;;;;;5030099;28;20025;-67
2021/12/17 08:03:36;;;;;;;104.15;38.22;;;;;;;;;;5030341;28;20026;-67
2021/12/17 08:06:01;;;;;;;115.78;39.13;;;;;;;;;;5030124;28;20028;-67
2021/12/17 08:08:27;;;;;;;124.47;39.17;;;;;;;;;;5040506;28;20466;-67
2021/12/17 08:10:52;;;;;;;118.65;39.03;;;;;;;;;;5049575;28;20017;-67
2021/12/17 08:13:27;;;;;;;129.02;42.45;;;;;;;;;;5050213;28;20024;-67
2021/12/17 08:24:43;;;;;;;121.40;40.72;;;;;;;;;;5014681;28;20464;-67
2021/12/17 08:29:28;;;;;;;133.77;42.67;;;;;;;;;;5014334;28;20560;-67
2021/12/17 08:31:53;;;;;;;133.43;43.45;;;;;;;;;;5015227;28;20014;-67
2021/12/17 08:34:19;;;;;;;125.57;40.38;;;;;;;;;;5033615;28;20014;-67
2021/12/17 08:36:44;;;;;;;131.98;41.95;;;;;;;;;;5033794;28;20096;-67
2021/12/17 08:39:09;;;;;;;137.40;45.00;;;;;;;;;;5033627;28;20165;-67
2021/12/17 08:41:35;;;;;;;146.02;46.33;;;;;;;;;;5033524;28;20278;-67
2021/12/17 08:44:00;;;;;;;147.52;45.20;;;;;;;;;;5033532;28;20029;-67
2021/12/17 08:46:25;;;;;;;130.88;42.42;;;;;;;;;;5034019;28;20116;-67
2021/12/17 08:48:51;;;;;;;127.18;41.55;;;;;;;;;;5033690;28;20026;-67
2021/12/17 08:51:16;;;;;;;123.97;38.58;;;;;;;;;;5033098;28;20049;-67
2021/12/17 08:53:41;;;;;;;122.15;40.22;;;;;;;;;;5033362;28;20017;-67
2021/12/17 08:56:07;;;;;;;129.23;42.60;;;;;;;;;;5033353;28;20080;-67
2021/12/17 08:58:33;;;;;;;123.80;41.45;;;;;;;;;;5033370;28;20018;-66
2021/12/17 09:00:59;;;;;;;134.13;40.97;;;;;;;;;;5032860;28;20021;-66
2021/12/17 09:03:24;;;;;;;117.38;39.70;;;;;;;;;;5033331;28;20408;-67
2021/12/17 09:05:49;;;;;;;123.88;39.65;;;;;;;;;;5032732;28;20021;-66
2021/12/17 09:08:15;;;;;;;120.13;38.95;;;;;;;;;;5041440;28;20130;-67
2021/12/17 09:10:43;;;;;;;129.27;43.70;;;;;;;;;;5052637;28;20080;-66
2021/12/17 09:13:08;;;;;;;127.05;39.30;;;;;;;;;;5052851;28;20021;-66
2021/12/17 09:15:33;;;;;;;158.10;46.53;;;;;;;;;;5052876;28;20021;-66
2021/12/17 09:17:59;;;;;;;145.87;43.53;;;;;;;;;;5052737;28;20024;-66
2021/12/17 09:20:24;;;;;;;126.47;42.15;;;;;;;;;;5052417;28;20792;-67
2021/12/17 09:22:50;;;;;;;136.13;44.50;;;;;;;;;;5037755;28;20037;-65
2021/12/17 09:25:16;;;;;;;135.63;44.10;;;;;;;;;;5032683;28;20037;-66
2021/12/17 09:27:41;;;;;;;163.23;49.67;;;;;;;;;;5032813;28;20029;-66
2021/12/17 09:30:14;;;;;;;160.30;48.33;;;;;;;;;;5032414;28;20292;-66
2021/12/17 09:32:40;;;;;;;126.32;40.28;;;;;;;;;;5032067;28;20014;-67
2021/12/17 09:35:06;;;;;;;134.50;43.63;;;;;;;;;;5032472;28;20021;-67
2021/12/17 09:37:31;;;;;;;126.18;37.45;;;;;;;;;;5032307;28;20064;-67
2021/12/17 09:39:56;;;;;;;123.25;41.03;;;;;;;;;;5032169;28;20025;-67
2021/12/17 09:42:21;;;;;;;127.63;40.50;;;;;;;;;;5032157;28;20025;-68
2021/12/17 09:44:47;;;;;;;117.50;43.53;;;;;;;;;;5032340;28;20298;-67
2021/12/17 09:47:12;;;;;;;119.85;38.20;;;;;;;;;;5032321;28;20075;-67
2021/12/17 09:49:37;;;;;;;133.05;40.72;;;;;;;;;;5032305;28;20104;-67
2021/12/17 09:52:02;;;;;;;134.65;39.75;;;;;;;;;;5031959;28;20013;-67
2021/12/17 09:54:28;;;;;;;129.05;37.60;;;;;;;;;;5032159;28;20053;-66
2021/12/17 09:56:53;;;;;;;105.82;34.53;;;;;;;;;;5032283;28;20017;-66
2021/12/17 09:59:18;;;;;;;105.65;35.38;;;;;;;;;;5031992;28;20017;-66
2021/12/17 10:01:44;;;;;;;111.63;38.08;;;;;;;;;;5031905;28;20017;-66
2021/12/17 10:04:19;;;;;;;117.45;37.70;;;;;;;;;;5031929;28;20040;-66
2021/12/17 10:06:46;;;;;;;100.55;31.45;;;;;;;;;;5032496;28;20522;-67
2021/12/17 10:09:11;;;;;;;112.03;35.33;;;;;;;;;;5048221;28;20021;-67
2021/12/17 10:11:36;;;;;;;110.63;34.03;;;;;;;;;;5034492;28;20547;-67
2021/12/17 10:14:18;;;;;;;115.38;36.58;;;;;;;;;;5032043;28;20505;-67
2021/12/17 10:16:43;;;;;;;116.30;35.60;;;;;;;;;;5014612;28;20045;-67
2021/12/17 10:19:09;;;;;;;114.53;37.55;;;;;;;;;;5031884;28;20052;-67
2021/12/17 10:21:38;;;;;;;135.32;38.58;;;;;;;;;;5031683;28;20021;-67
2021/12/17 10:24:03;;;;;;;128.60;36.92;;;;;;;;;;5031762;28;20021;-67
2021/12/17 10:26:39;;;;;;;99.07;27.10;;;;;;;;;;5029585;28;20032;-67
2021/12/17 10:29:04;;;;;;;96.05;29.20;;;;;;;;;;5038542;28;20032;-67
2021/12/17 10:31:31;;;;;;;99.35;30.15;;;;;;;;;;5031133;28;20382;-67
2021/12/17 10:34:01;;;;;;;131.68;37.63;;;;;;;;;;5042984;28;20013;-67
2021/12/17 10:36:42;;;;;;;110.97;32.78;;;;;;;;;;5033774;28;20438;-67
2021/12/17 10:39:20;;;;;;;124.30;30.88;;;;;;;;;;5031738;28;20068;-67
2021/12/17 10:41:46;;;;;;;128.50;34.72;;;;;;;;;;5030729;28;20049;-67
2021/12/17 10:44:11;;;;;;;114.13;35.15;;;;;;;;;;5031204;28;20021;-67
2021/12/17 10:46:54;;;;;;;137.90;35.40;;;;;;;;;;5031621;28;20442;-67
2021/12/17 10:49:23;;;;;;;141.05;39.08;;;;;;;;;;5031399;28;20022;-67
2021/12/17 10:51:56;;;;;;;137.32;36.08;;;;;;;;;;5031071;28;20025;-67
2021/12/17 10:54:21;;;;;;;135.98;36.42;;;;;;;;;;5031113;28;20021;-67
2021/12/17 10:56:53;;;;;;;151.73;43.05;;;;;;;;;;5031450;28;20033;-67
2021/12/17 10:59:23;;;;;;;141.40;40.63;;;;;;;;;;5031510;28;20082;-67
2021/12/17 11:01:52;;;;;;;157.43;40.95;;;;;;;;;;5030863;28;20021;-67
2021/12/17 11:04:23;;;;;;;157.32;44.20;;;;;;;;;;5046328;28;20393;-67
2021/12/17 11:06:49;;;;;;;166.48;42.17;;;;;;;;;;5048408;28;20021;-68
2021/12/17 11:09:31;;;;;;;140.80;39.55;;;;;;;;;;5030618;28;20139;-67
2021/12/17 11:11:57;;;;;;;137.52;40.28;;;;;;;;;;5030444;28;20381;-67
2021/12/17 11:14:23;;;;;;;137.18;40.45;;;;;;;;;;5030869;28;20014;-68
2021/12/17 11:16:48;;;;;;;140.32;39.00;;;;;;;;;;5030902;28;20021;-65
2021/12/17 11:19:13;;;;;;;151.77;41.53;;;;;;;;;;5030665;28;20017;-65
2021/12/17 11:21:38;;;;;;;148.20;41.88;;;;;;;;;;5030121;28;20017;-67
2021/12/17 11:24:04;;;;;;;156.15;43.42;;;;;;;;;;5030512;28;20021;-67
2021/12/17 11:26:29;;;;;;;165.52;42.05;;;;;;;;;;5030807;28;20025;-67
2021/12/17 11:29:00;;;;;;;143.20;41.25;;;;;;;;;;5030567;28;20025;-68
2021/12/17 11:31:26;;;;;;;144.73;41.42;;;;;;;;;;5030301;28;20052;-67
2021/12/17 11:33:51;;;;;;;154.80;42.50;;;;;;;;;;5030457;28;20087;-67
2021/12/17 11:36:17;;;;;;;141.57;44.03;;;;;;;;;;5030451;28;20525;-68
2021/12/17 11:38:48;;;;;;;161.43;45.17;;;;;;;;;;5030277;28;20581;-67
2021/12/17 11:41:15;;;;;;;140.60;40.22;;;;;;;;;;5030005;28;20034;-67
2021/12/17 11:43:51;;;;;;;138.98;42.60;;;;;;;;;;5030865;28;20028;-67
2021/12/17 11:46:18;;;;;;;149.15;41.15;;;;;;;;;;5030710;28;20112;-68
2021/12/17 11:48:51;;;;;;;137.30;41.75;;;;;;;;;;5030507;28;20025;-68
2021/12/17 11:51:17;;;;;;;127.93;40.65;;;;;;;;;;5029768;28;20025;-67
2021/12/17 11:53:54;;;;;;;135.80;40.45;;;;;;;;;;5030310;28;20028;-67
2021/12/17 11:56:33;;;;;;;145.80;43.45;;;;;;;;;;5033168;28;20016;-67
2021/12/17 11:58:59;;;;;;;139.20;42.03;;;;;;;;;;5036791;28;20025;-68
2021/12/17 12:01:42;;;;;;;146.70;42.28;;;;;;;;;;5036490;28;20028;-68
2021/12/17 12:04:24;;;;;;;156.02;43.13;;;;;;;;;;5034480;28;20021;-68
2021/12/17 12:07:09;;;;;;;152.68;45.58;;;;;;;;;;5036031;28;20021;-67
2021/12/17 12:12:22;;;;;;;143.80;41.38;;;;;;;;;;5019097;28;20589;-67
2021/12/17 12:14:47;;;;;;;150.55;42.78;;;;;;;;;;5036696;28;20021;-68
2021/12/17 12:17:12;;;;;;;133.45;39.95;;;;;;;;;;5036471;28;20493;-67
2021/12/17 12:19:48;;;;;;;156.57;42.53;;;;;;;;;;5036608;28;20044;-68
2021/12/17 12:22:13;;;;;;;138.88;41.97;;;;;;;;;;5036274;28;20399;-67
2021/12/17 12:24:38;;;;;;;152.27;43.58;;;;;;;;;;5036577;28;20120;-67
2021/12/17 12:27:03;;;;;;;133.65;41.65;;;;;;;;;;5035982;28;20459;-67
2021/12/17 12:29:29;;;;;;;150.88;45.85;;;;;;;;;;5036517;28;20025;-68
2021/12/17 12:31:56;;;;;;;160.93;47.10;;;;;;;;;;5036139;28;20021;-68
2021/12/17 12:34:32;;;;;;;168.40;43.88;;;;;;;;;;5036133;28;20025;-67
2021/12/17 12:37:08;;;;;;;157.07;44.45;;;;;;;;;;5036533;28;20473;-67
2021/12/17 12:39:42;;;;;;;155.20;41.25;;;;;;;;;;5036593;28;20101;-68
2021/12/17 12:42:11;;;;;;;136.75;39.20;;;;;;;;;;5036112;28;20024;-67
2021/12/17 12:44:45;;;;;;;125.57;38.35;;;;;;;;;;5036293;28;20021;-68
2021/12/17 12:47:30;;;;;;;128.80;39.10;;;;;;;;;;5036175;28;20024;-67
2021/12/17 12:50:01;;;;;;;124.30;37.50;;;;;;;;;;5022068;28;20127;-67
2021/12/17 12:52:32;;;;;;;126.43;36.10;;;;;;;;;;5018420;28;20024;-67
2021/12/17 12:55:05;;;;;;;116.88;34.75;;;;;;;;;;5036515;28;20091;-67
2021/12/17 12:57:30;;;;;;;115.80;35.17;;;;;;;;;;5035072;28;20024;-67
2021/12/17 12:59:57;;;;;;;102.18;31.60;;;;;;;;;;5041479;28;20021;-67
2021/12/17 13:02:25;;;;;;;84.30;30.02;;;;;;;;;;5040367;28;20037;-67
2021/12/17 13:04:52;;;;;;;87.13;30.52;;;;;;;;;;5037944;28;20477;-68
2021/12/17 13:07:17;;;;;;;88.30;26.95;;;;;;;;;;5024476;28;20021;-68
2021/12/17 13:09:42;;;;;;;80.47;27.17;;;;;;;;;;5024593;28;20486;-67
2021/12/17 13:12:08;;;;;;;86.63;29.02;;;;;;;;;;5024177;28;20342;-68
2021/12/17 13:14:34;;;;;;;86.88;27.30;;;;;;;;;;5024218;28;20107;-67
2021/12/17 13:17:40;;;;;;;56.42;19.92;;;;;;;;;;5029331;28;20071;-66
2021/12/17 13:22:56;;;;;;;27.58;9.82;;;;;;;;;;5025551;28;20428;-66
2021/12/17 13:25:26;;;;;;;19.15;8.45;;;;;;;;;;5023955;28;20021;-66
2021/12/17 13:27:52;;;;;;;23.98;8.35;;;;;;;;;;5025520;28;20478;-66
2021/12/17 13:30:22;;;;;;;14.18;7.22;;;;;;;;;;5024095;28;20208;-66
2021/12/17 13:32:47;;;;;;;14.85;6.80;;;;;;;;;;5025143;28;20041;-66
2021/12/17 13:35:14;;;;;;;17.90;7.47;;;;;;;;;;5025182;28;20029;-67
2021/12/17 13:37:39;;;;;;;12.52;6.13;;;;;;;;;;5024125;28;20268;-68
2021/12/17 13:40:07;;;;;;;14.77;6.97;;;;;;;;;;5027875;28;20501;-67
2021/12/17 13:42:37;;;;;;;11.55;6.38;;;;;;;;;;5025991;28;20029;-67
2021/12/17 13:45:05;;;;;;;13.27;6.13;;;;;;;;;;5025014;28;20022;-67
2021/12/17 13:47:31;;;;;;;13.40;6.47;;;;;;;;;;5026352;28;20435;-67
2021/12/17 13:50:07;;;;;;;10.68;5.70;;;;;;;;;;5043139;28;20024;-67
2021/12/17 13:52:34;;;;;;;10.80;5.82;;;;;;;;;;5040231;28;20028;-67
2021/12/17 13:55:00;;;;;;;13.32;5.50;;;;;;;;;;5027858;28;20017;-68
2021/12/17 13:57:29;;;;;;;13.55;6.70;;;;;;;;;;5024376;28;20021;-67
2021/12/17 14:00:08;;;;;;;11.65;5.20;;;;;;;;;;5024671;28;20017;-67
2021/12/17 14:02:35;;;;;;;9.77;5.40;;;;;;;;;;5025385;28;20045;-67
2021/12/17 14:05:05;;;;;;;13.00;5.22;;;;;;;;;;5024638;28;20052;-68
2021/12/17 14:07:31;;;;;;;11.27;4.82;;;;;;;;;;5027775;28;20498;-68
2021/12/17 14:09:57;;;;;;;8.63;4.90;;;;;;;;;;5027991;28;20065;-68
2021/12/17 14:12:29;;;;;;;13.65;5.22;;;;;;;;;;5032204;28;20033;-68
2021/12/17 14:14:58;;;;;;;10.68;5.03;;;;;;;;;;5023855;28;20083;-67
2021/12/17 14:17:23;;;;;;;10.67;4.60;;;;;;;;;;5031175;28;20026;-68
2021/12/17 14:19:50;;;;;;;12.33;5.63;;;;;;;;;;5023352;28;20014;-67
2021/12/17 14:22:24;;;;;;;8.55;4.95;;;;;;;;;;5026669;28;20570;-66
2021/12/17 14:24:49;;;;;;;10.73;4.88;;;;;;;;;;5022998;28;20021;-66
2021/12/17 14:27:14;;;;;;;9.25;4.63;;;;;;;;;;5023459;28;20026;-66
2021/12/17 14:29:39;;;;;;;11.55;4.55;;;;;;;;;;5028236;28;20032;-66
2021/12/17 14:32:05;;;;;;;9.80;4.85;;;;;;;;;;5031089;28;20018;-66
2021/12/17 14:34:39;;;;;;;11.27;5.68;;;;;;;;;;5023266;28;20026;-66
2021/12/17 14:37:04;;;;;;;14.98;6.70;;;;;;;;;;5027436;28;20548;-66
2021/12/17 14:39:34;;;;;;;9.40;4.95;;;;;;;;;;5023506;28;20108;-66
2021/12/17 14:42:02;;;;;;;8.52;4.43;;;;;;;;;;5023290;28;20567;-66
2021/12/17 14:47:14;;;;;;;7.45;4.65;;;;;;;;;;5023680;28;20421;-67
2021/12/17 15:03:26;;;;;;;8.13;5.03;;;;;;;;;;5023464;28;20040;-68
2021/12/17 15:05:52;;;;;;;8.98;4.95;;;;;;;;;;5038178;28;20021;-68
2021/12/17 15:08:18;;;;;;;11.43;6.28;;;;;;;;;;5047561;28;20031;-67
2021/12/17 15:10:44;;;;;;;11.38;5.68;;;;;;;;;;5039425;28;20025;-68
2021/12/17 15:13:10;;;;;;;11.93;6.07;;;;;;;;;;5025633;28;20032;-68
2021/12/17 15:15:36;;;;;;;11.38;5.75;;;;;;;;;;5027307;28;20018;-68
2021/12/17 15:18:03;;;;;;;11.25;6.20;;;;;;;;;;5023051;28;20458;-65
2021/12/17 15:20:30;;;;;;;10.70;5.97;;;;;;;;;;5022080;28;20079;-65
2021/12/17 15:22:56;;;;;;;13.35;6.18;;;;;;;;;;5023099;28;20049;-65
2021/12/17 15:25:22;;;;;;;17.67;8.20;;;;;;;;;;5022377;28;20044;-66
2021/12/17 15:27:47;;;;;;;16.85;7.22;;;;;;;;;;5023555;28;20029;-66
2021/12/17 15:30:15;;;;;;;16.67;7.68;;;;;;;;;;5029814;28;20405;-65
2021/12/17 15:32:40;;;;;;;18.40;9.77;;;;;;;;;;5023114;28;20047;-65
2021/12/17 15:35:06;;;;;;;16.55;8.60;;;;;;;;;;5022361;28;20053;-66
2021/12/17 15:37:31;;;;;;;15.07;8.02;;;;;;;;;;5035424;28;20063;-67
2021/12/17 15:39:56;;;;;;;15.93;7.40;;;;;;;;;;5034963;28;20056;-67
2021/12/17 15:42:22;;;;;;;14.35;8.65;;;;;;;;;;5023255;28;20024;-67
2021/12/17 15:44:47;;;;;;;25.70;12.35;;;;;;;;;;5021642;28;20046;-67
2021/12/17 15:47:12;;;;;;;19.45;9.90;;;;;;;;;;5022889;28;20020;-67
2021/12/17 15:49:38;;;;;;;25.37;12.10;;;;;;;;;;5022477;28;20029;-67
2021/12/17 15:52:07;;;;;;;19.10;10.30;;;;;;;;;;5023530;28;20327;-68
2021/12/17 15:54:32;;;;;;;20.17;10.18;;;;;;;;;;5034178;28;20726;-67
2021/12/17 15:56:58;;;;;;;21.60;9.88;;;;;;;;;;5025574;28;20112;-67
2021/12/17 15:59:23;;;;;;;17.92;9.25;;;;;;;;;;5022937;28;20496;-67
2021/12/17 16:01:48;;;;;;;20.17;9.80;;;;;;;;;;5022088;28;20430;-68
2021/12/17 16:04:14;;;;;;;26.38;10.00;;;;;;;;;;5022864;28;20060;-67
2021/12/17 16:06:39;;;;;;;19.38;9.55;;;;;;;;;;5022446;28;20021;-67
2021/12/17 16:09:11;;;;;;;21.98;10.02;;;;;;;;;;5021928;28;20032;-68
2021/12/17 16:22:27;;;;;;;16.27;8.05;;;;;;;;;;5026088;28;20279;-68
2021/12/17 16:24:52;;;;;;;21.27;9.05;;;;;;;;;;5021953;28;20021;-68
2021/12/17 16:27:17;;;;;;;20.75;8.45;;;;;;;;;;5022822;28;20061;-67
2021/12/17 16:29:42;;;;;;;19.80;8.52;;;;;;;;;;5022957;28;20059;-68
2021/12/17 16:32:07;;;;;;;21.40;7.55;;;;;;;;;;5022220;28;20026;-67
2021/12/17 16:34:33;;;;;;;14.52;6.88;;;;;;;;;;5023245;28;20037;-67
2021/12/17 16:36:58;;;;;;;15.98;6.78;;;;;;;;;;5021804;28;20017;-67
2021/12/17 16:39:23;;;;;;;14.95;6.03;;;;;;;;;;5023287;28;20096;-67
2021/12/17 16:41:49;;;;;;;20.85;6.68;;;;;;;;;;5022363;28;20025;-67
2021/12/17 16:44:18;;;;;;;14.18;6.30;;;;;;;;;;5032571;28;20057;-67
2021/12/17 16:49:12;;;;;;;16.40;5.78;;;;;;;;;;5034187;28;20028;-68
2021/12/17 16:51:38;;;;;;;13.02;5.32;;;;;;;;;;5035810;28;20052;-68
2021/12/17 16:54:03;;;;;;;13.05;5.72;;;;;;;;;;5024972;28;20052;-67
2021/12/17 16:56:28;;;;;;;11.02;5.00;;;;;;;;;;5028028;28;20009;-67
2021/12/17 16:58:54;;;;;;;10.85;6.05;;;;;;;;;;5033635;28;20026;-67
2021/12/17 17:01:20;;;;;;;15.25;6.40;;;;;;;;;;5025361;28;20033;-67
2021/12/17 17:03:45;;;;;;;14.15;5.40;;;;;;;;;;5026092;28;20037;-68
2021/12/17 17:06:10;;;;;;;16.88;6.30;;;;;;;;;;5025529;28;20517;-68
2021/12/17 17:08:36;;;;;;;11.70;6.00;;;;;;;;;;5024551;28;20149;-67
2021/12/17 17:11:03;;;;;;;12.75;5.97;;;;;;;;;;5031528;28;20115;-67
2021/12/17 17:13:29;;;;;;;12.35;6.15;;;;;;;;;;5024117;28;20075;-67
2021/12/17 17:15:56;;;;;;;12.82;5.18;;;;;;;;;;5024176;28;20021;-67
2021/12/17 17:18:21;;;;;;;11.90;5.30;;;;;;;;;;5024771;28;20182;-67
2021/12/17 17:20:47;;;;;;;11.07;5.38;;;;;;;;;;5023221;28;20021;-68
2021/12/17 17:23:12;;;;;;;11.30;5.50;;;;;;;;;;5023619;28;20056;-68
2021/12/17 17:25:38;;;;;;;12.32;6.07;;;;;;;;;;5025172;28;20276;-68
2021/12/17 17:28:06;;;;;;;13.10;6.15;;;;;;;;;;5031640;28;20017;-67
2021/12/17 17:30:32;;;;;;;10.32;5.70;;;;;;;;;;5019525;28;20029;-67